createdAt,value
2016-08-29T03:00:45.295Z,26.37
2016-08-29T03:01:10.885Z,26.37
2016-08-29T03:01:36.477Z,26.31
2016-08-29T03:02:02.145Z,26.39
2016-08-29T03:02:27.690Z,26.4
2016-08-29T03:02:53.239Z,26.39
2016-08-29T03:03:18.910Z,26.43
2016-08-29T03:03:44.635Z,26.39
2016-08-29T03:04:10.276Z,26.36
2016-08-29T03:04:35.847Z,26.46
2016-08-29T03:05:01.484Z,26.39
2016-08-29T03:05:27.117Z,26.35
2016-08-29T03:05:52.673Z,26.43
2016-08-29T03:06:18.249Z,26.4
2016-08-29T03:06:43.864Z,26.35
2016-08-29T03:07:09.463Z,26.4
2016-08-29T03:07:35.104Z,26.37
2016-08-29T03:08:00.673Z,26.37
2016-08-29T03:08:26.304Z,26.4
2016-08-29T03:08:51.879Z,26.37
2016-08-29T03:09:17.494Z,26.43
2016-08-29T03:09:43.062Z,26.43
2016-08-29T03:10:08.824Z,26.36
2016-08-29T03:10:34.449Z,26.4
2016-08-29T03:11:01.053Z,26.44
2016-08-29T03:11:26.643Z,26.42
2016-08-29T03:11:52.325Z,26.36
2016-08-29T03:12:17.884Z,26.39
2016-08-29T03:12:43.536Z,26.37
2016-08-29T03:13:09.106Z,26.4
2016-08-29T03:13:34.681Z,26.4
2016-08-29T03:14:00.342Z,26.35
2016-08-29T03:14:25.902Z,26.43
2016-08-29T03:14:51.604Z,26.42
2016-08-29T03:15:17.745Z,26.36
2016-08-29T03:15:43.340Z,26.35
2016-08-29T03:16:09.137Z,26.39
2016-08-29T03:16:34.704Z,26.44
2016-08-29T03:17:00.347Z,26.35
2016-08-29T03:17:25.901Z,26.42
2016-08-29T03:17:51.493Z,26.44
2016-08-29T03:18:17.130Z,26.44
2016-08-29T03:18:42.714Z,26.32
2016-08-29T03:19:08.302Z,26.36
2016-08-29T03:19:33.859Z,26.39
2016-08-29T03:19:59.429Z,26.4
2016-08-29T03:20:25.004Z,26.36
2016-08-29T03:20:50.673Z,26.39
2016-08-29T03:21:16.355Z,26.39
2016-08-29T03:21:41.914Z,26.35
2016-08-29T03:22:08.314Z,26.35
2016-08-29T03:22:33.881Z,26.4
2016-08-29T03:22:59.498Z,26.39
2016-08-29T03:23:25.068Z,26.36
2016-08-29T03:23:50.711Z,26.39
2016-08-29T03:24:16.392Z,26.37
2016-08-29T03:24:41.939Z,26.36
2016-08-29T03:25:07.633Z,26.42
2016-08-29T03:25:33.175Z,26.36
2016-08-29T03:26:31.454Z,26.36
2016-08-29T03:26:57.024Z,26.37
2016-08-29T03:27:22.620Z,26.37
2016-08-29T03:27:48.279Z,26.36
2016-08-29T03:28:13.798Z,26.27
2016-08-29T03:28:39.455Z,26.37
2016-08-29T03:29:05.020Z,26.32
2016-08-29T03:29:30.679Z,26.4
2016-08-29T03:29:56.230Z,26.36
2016-08-29T03:30:21.800Z,26.35
2016-08-29T03:30:47.364Z,26.42
2016-08-29T03:31:12.935Z,26.39
2016-08-29T03:31:38.620Z,26.37
2016-08-29T03:32:04.319Z,26.37
2016-08-29T03:32:29.846Z,26.37
2016-08-29T03:32:55.455Z,26.37
2016-08-29T03:33:21.033Z,26.35
2016-08-29T03:33:46.708Z,26.36
2016-08-29T03:34:12.410Z,26.37
2016-08-29T03:34:38.018Z,26.27
2016-08-29T03:35:03.567Z,26.37
2016-08-29T03:35:29.664Z,26.25
2016-08-29T03:35:54.703Z,26.27
2016-08-29T03:36:20.269Z,26.39
2016-08-29T03:36:45.864Z,26.37
2016-08-29T03:37:11.473Z,26.39
2016-08-29T03:37:37.053Z,26.36
2016-08-29T03:38:02.659Z,26.35
2016-08-29T03:38:28.240Z,26.39
2016-08-29T03:38:53.847Z,26.37
2016-08-29T03:39:19.447Z,26.37
2016-08-29T03:39:45.046Z,26.27
2016-08-29T03:40:10.678Z,26.37
2016-08-29T03:40:36.322Z,26.39
2016-08-29T03:41:01.884Z,26.36
2016-08-29T03:41:27.517Z,26.42
2016-08-29T03:41:53.138Z,26.35
2016-08-29T03:42:18.753Z,26.27
2016-08-29T03:42:44.416Z,26.35
2016-08-29T03:43:10.057Z,26.39
2016-08-29T03:43:35.668Z,26.25
2016-08-29T03:44:01.225Z,26.35
2016-08-29T03:44:26.830Z,26.28
2016-08-29T03:44:52.404Z,26.28
2016-08-29T03:45:17.987Z,26.27
2016-08-29T03:45:44.115Z,26.24
2016-08-29T03:46:09.871Z,26.37
2016-08-29T03:46:35.439Z,26.29
2016-08-29T03:47:01.068Z,26.27
2016-08-29T03:47:26.635Z,26.27
2016-08-29T03:47:52.316Z,26.28
2016-08-29T03:48:18.614Z,26.24
2016-08-29T03:48:44.330Z,26.31
2016-08-29T03:49:10.005Z,26.36
2016-08-29T03:49:35.667Z,26.24
2016-08-29T03:50:01.260Z,26.25
2016-08-29T03:50:26.831Z,26.28
2016-08-29T03:50:52.389Z,26.27
2016-08-29T03:51:17.986Z,26.27
2016-08-29T03:51:43.584Z,26.25
2016-08-29T03:52:09.168Z,26.27
2016-08-29T03:52:34.730Z,26.25
2016-08-29T03:53:00.297Z,26.2
2016-08-29T03:53:25.943Z,26.29
2016-08-29T03:53:51.537Z,26.24
2016-08-29T03:54:44.545Z,26.25
2016-08-29T03:55:10.216Z,26.28
2016-08-29T03:55:35.846Z,26.29
2016-08-29T03:56:01.459Z,26.25
2016-08-29T03:56:27.042Z,26.29
2016-08-29T03:56:52.619Z,26.28
2016-08-29T03:57:18.191Z,26.24
2016-08-29T03:57:43.785Z,26.28
2016-08-29T03:58:09.538Z,26.29
2016-08-29T03:58:35.156Z,26.27
2016-08-29T03:59:00.813Z,26.28
2016-08-29T03:59:26.418Z,26.28
2016-08-29T03:59:52.050Z,26.32
2016-08-29T04:00:17.612Z,26.22
2016-08-29T04:00:43.178Z,26.24
2016-08-29T04:01:08.800Z,26.25
2016-08-29T04:01:34.306Z,26.29
2016-08-29T04:01:59.915Z,26.28
2016-08-29T04:02:25.513Z,26.21
2016-08-29T04:02:51.156Z,26.29
2016-08-29T04:03:16.724Z,26.25
2016-08-29T04:03:42.322Z,26.24
2016-08-29T04:04:08.027Z,26.27
2016-08-29T04:04:33.588Z,26.28
2016-08-29T04:04:59.151Z,26.36
2016-08-29T04:05:24.934Z,26.24
2016-08-29T04:05:50.505Z,26.25
2016-08-29T04:06:16.134Z,26.25
2016-08-29T04:06:41.690Z,26.28
2016-08-29T04:07:07.257Z,26.24
2016-08-29T04:07:32.924Z,26.24
2016-08-29T04:07:58.524Z,26.2
2016-08-29T04:08:24.197Z,26.29
2016-08-29T04:08:49.754Z,26.21
2016-08-29T04:09:15.313Z,26.31
2016-08-29T04:09:40.933Z,26.24
2016-08-29T04:10:06.528Z,26.25
2016-08-29T04:10:32.077Z,26.25
2016-08-29T04:10:57.643Z,26.21
2016-08-29T04:11:23.246Z,26.29
2016-08-29T04:11:48.814Z,26.22
2016-08-29T04:12:14.567Z,26.29
2016-08-29T04:12:40.184Z,26.25
2016-08-29T04:13:05.756Z,26.32
2016-08-29T04:13:31.386Z,26.32
2016-08-29T04:13:57.059Z,26.35
2016-08-29T04:14:22.696Z,26.27
2016-08-29T04:14:48.311Z,26.29
2016-08-29T04:15:14.196Z,26.29
2016-08-29T04:15:39.755Z,26.29
2016-08-29T04:16:05.469Z,26.31
2016-08-29T04:16:31.096Z,26.35
2016-08-29T04:16:56.663Z,26.28
2016-08-29T04:17:22.324Z,26.29
2016-08-29T04:17:47.881Z,26.32
2016-08-29T04:18:13.436Z,26.31
2016-08-29T04:18:38.985Z,26.31
2016-08-29T04:19:04.587Z,26.31
2016-08-29T04:19:30.248Z,26.32
2016-08-29T04:19:55.877Z,26.27
2016-08-29T04:20:21.550Z,26.27
2016-08-29T04:20:47.316Z,26.35
2016-08-29T04:21:12.907Z,26.27
2016-08-29T04:21:38.476Z,26.27
2016-08-29T04:22:04.032Z,26.31
2016-08-29T04:22:29.731Z,26.28
2016-08-29T04:22:55.336Z,26.22
2016-08-29T04:23:20.893Z,26.21
2016-08-29T04:23:46.461Z,26.25
2016-08-29T04:24:12.051Z,26.24
2016-08-29T04:24:37.633Z,26.28
2016-08-29T04:25:03.220Z,26.31
2016-08-29T04:25:28.878Z,26.29
2016-08-29T04:25:54.493Z,26.2
2016-08-29T04:26:20.055Z,26.29
2016-08-29T04:26:45.703Z,26.25
2016-08-29T04:27:11.352Z,26.32
2016-08-29T04:27:36.936Z,26.31
2016-08-29T04:28:02.596Z,26.24
2016-08-29T04:28:28.140Z,26.31
2016-08-29T04:28:53.705Z,26.29
2016-08-29T04:29:19.379Z,26.28
2016-08-29T04:29:44.969Z,26.24
2016-08-29T04:30:10.572Z,26.2
2016-08-29T04:30:36.655Z,26.27
2016-08-29T04:31:02.277Z,26.28
2016-08-29T04:31:27.877Z,26.27
2016-08-29T04:31:53.455Z,26.31
2016-08-29T04:32:19.046Z,26.25
2016-08-29T04:32:44.664Z,26.2
2016-08-29T04:33:10.331Z,26.15
2016-08-29T04:33:35.865Z,26.2
2016-08-29T04:34:01.450Z,26.29
2016-08-29T04:34:27.022Z,26.27
2016-08-29T04:34:52.654Z,26.2
2016-08-29T04:35:18.263Z,26.25
2016-08-29T04:35:43.802Z,26.22
2016-08-29T04:36:09.465Z,26.18
2016-08-29T04:36:35.056Z,26.22
2016-08-29T04:37:00.685Z,26.22
2016-08-29T04:37:26.246Z,26.27
2016-08-29T04:37:51.854Z,26.28
2016-08-29T04:38:17.400Z,26.27
2016-08-29T04:38:42.988Z,26.28
2016-08-29T04:39:08.555Z,26.22
2016-08-29T04:39:34.133Z,26.2
2016-08-29T04:39:59.706Z,26.24
2016-08-29T04:40:25.265Z,26.21
2016-08-29T04:40:50.826Z,26.24
2016-08-29T04:41:16.493Z,26.24
2016-08-29T04:41:42.047Z,26.25
2016-08-29T04:42:07.614Z,26.21
2016-08-29T04:42:33.176Z,26.22
2016-08-29T04:42:58.837Z,26.22
2016-08-29T04:43:24.475Z,26.17
2016-08-29T04:43:49.985Z,26.24
2016-08-29T04:44:15.699Z,26.2
2016-08-29T04:45:18.918Z,26.2
2016-08-29T04:45:44.525Z,26.25
2016-08-29T04:46:10.109Z,26.24
2016-08-29T04:46:35.660Z,26.21
2016-08-29T04:47:01.213Z,26.22
2016-08-29T04:47:26.806Z,26.22
2016-08-29T04:47:52.559Z,26.18
2016-08-29T04:48:45.627Z,26.22
2016-08-29T04:49:11.198Z,26.15
2016-08-29T04:49:59.040Z,26.2
2016-08-29T04:50:24.642Z,26.2
2016-08-29T04:50:50.201Z,26.2
2016-08-29T04:51:15.955Z,26.2
2016-08-29T04:51:41.646Z,26.17
2016-08-29T04:52:07.207Z,26.24
2016-08-29T04:52:32.898Z,26.15
2016-08-29T04:52:58.446Z,26.17
2016-08-29T04:54:00.743Z,26.2
2016-08-29T04:54:26.307Z,26.17
2016-08-29T04:54:51.998Z,26.21
2016-08-29T04:55:17.591Z,26.12
2016-08-29T04:55:43.201Z,26.12
2016-08-29T04:56:08.952Z,26.17
2016-08-29T04:56:34.497Z,26.18
2016-08-29T04:57:00.771Z,26.18
2016-08-29T04:57:26.322Z,26.2
2016-08-29T04:57:51.973Z,26.22
2016-08-29T04:58:18.185Z,26.17
2016-08-29T04:58:43.873Z,26.17
2016-08-29T04:59:09.959Z,26.17
2016-08-29T04:59:35.538Z,26.24
2016-08-29T05:00:01.722Z,26.2
2016-08-29T05:00:27.286Z,26.22
2016-08-29T05:00:52.914Z,26.2
2016-08-29T05:01:19.087Z,26.21
2016-08-29T05:01:44.660Z,26.2
2016-08-29T05:02:10.886Z,26.22
2016-08-29T05:02:36.456Z,26.2
2016-08-29T05:03:02.091Z,26.22
2016-08-29T05:03:28.246Z,26.12
2016-08-29T05:03:53.911Z,26.24
2016-08-29T05:04:19.996Z,26.2
2016-08-29T05:04:45.569Z,26.25
2016-08-29T05:05:11.842Z,26.2
2016-08-29T05:05:37.410Z,26.25
2016-08-29T05:06:03.092Z,26.18
2016-08-29T05:06:29.057Z,26.18
2016-08-29T05:06:54.626Z,26.25
2016-08-29T05:07:20.927Z,26.22
2016-08-29T05:07:46.496Z,26.2
2016-08-29T05:08:12.086Z,26.25
2016-08-29T05:08:38.363Z,26.22
2016-08-29T05:09:04.113Z,26.24
2016-08-29T05:09:30.115Z,26.18
2016-08-29T05:09:55.704Z,26.22
2016-08-29T05:10:21.908Z,26.2
2016-08-29T05:10:47.487Z,26.2
2016-08-29T05:11:13.150Z,26.28
2016-08-29T05:11:39.287Z,26.27
2016-08-29T05:12:04.913Z,26.22
2016-08-29T05:12:31.046Z,26.24
2016-08-29T05:12:56.619Z,26.27
2016-08-29T05:13:22.315Z,26.24
2016-08-29T05:13:48.384Z,26.21
2016-08-29T05:14:13.995Z,26.21
2016-08-29T05:14:40.185Z,26.27
2016-08-29T05:15:05.812Z,26.28
2016-08-29T05:15:32.015Z,26.24
2016-08-29T05:15:57.586Z,26.21
2016-08-29T05:16:23.187Z,26.28
2016-08-29T05:16:49.397Z,26.22
2016-08-29T05:17:15.029Z,26.21
2016-08-29T05:17:41.147Z,26.11
2016-08-29T05:18:06.694Z,26.21
2016-08-29T05:18:32.369Z,26.12
2016-08-29T05:18:58.559Z,26.2
2016-08-29T05:19:24.300Z,26.18
2016-08-29T05:19:50.284Z,26.21
2016-08-29T05:20:15.903Z,26.28
2016-08-29T05:20:42.064Z,26.21
2016-08-29T05:21:07.645Z,26.24
2016-08-29T05:21:33.445Z,26.2
2016-08-29T05:21:59.386Z,26.15
2016-08-29T05:22:24.971Z,26.18
2016-08-29T05:22:51.266Z,26.18
2016-08-29T05:23:16.827Z,26.17
2016-08-29T05:23:42.426Z,26.18
2016-08-29T05:24:08.610Z,26.11
2016-08-29T05:24:34.179Z,26.21
2016-08-29T05:25:00.348Z,26.18
2016-08-29T05:25:26.352Z,26.18
2016-08-29T05:26:24.431Z,26.22
2016-08-29T05:26:49.983Z,26.15
2016-08-29T05:27:15.552Z,26.17
2016-08-29T05:27:41.178Z,26.21
2016-08-29T05:28:06.763Z,26.18
2016-08-29T05:28:32.459Z,26.18
2016-08-29T05:28:58.033Z,26.18
2016-08-29T05:29:23.705Z,26.15
2016-08-29T05:29:49.393Z,26.27
2016-08-29T05:30:14.986Z,26.15
2016-08-29T05:30:40.573Z,26.24
2016-08-29T05:31:06.119Z,26.17
2016-08-29T05:31:31.665Z,26.25
2016-08-29T05:31:57.269Z,26.17
2016-08-29T05:32:22.830Z,26.18
2016-08-29T05:33:31.158Z,26.2
2016-08-29T05:33:56.814Z,26.21
2016-08-29T05:34:22.479Z,26.22
2016-08-29T05:34:48.036Z,26.2
2016-08-29T05:35:13.696Z,26.21
2016-08-29T05:35:39.357Z,26.18
2016-08-29T05:36:04.908Z,26.18
2016-08-29T05:36:30.485Z,26.12
2016-08-29T05:36:56.065Z,26.22
2016-08-29T05:37:21.623Z,26.24
2016-08-29T05:37:47.276Z,26.18
2016-08-29T05:38:12.975Z,26.15
2016-08-29T05:38:38.552Z,26.17
2016-08-29T05:39:04.126Z,26.2
2016-08-29T05:39:29.726Z,26.21
2016-08-29T05:39:55.386Z,26.17
2016-08-29T05:40:21.045Z,26.12
2016-08-29T05:40:46.663Z,26.2
2016-08-29T05:41:12.222Z,26.2
2016-08-29T05:41:37.831Z,26.15
2016-08-29T05:42:03.418Z,26.18
2016-08-29T05:42:28.957Z,26.18
2016-08-29T05:42:54.585Z,26.2
2016-08-29T05:43:20.127Z,26.2
2016-08-29T05:43:45.733Z,26.24
2016-08-29T05:44:11.282Z,26.22
2016-08-29T05:44:36.921Z,26.22
2016-08-29T05:45:02.583Z,26.15
2016-08-29T05:45:28.166Z,26.17
2016-08-29T05:45:53.783Z,26.17
2016-08-29T05:46:19.355Z,26.21
2016-08-29T05:46:44.922Z,26.2
2016-08-29T05:47:10.483Z,26.18
2016-08-29T05:47:36.044Z,26.2
2016-08-29T05:48:01.772Z,26.11
2016-08-29T05:48:27.348Z,26.2
2016-08-29T05:48:52.936Z,26.2
2016-08-29T05:49:18.629Z,26.18
2016-08-29T05:49:44.216Z,26.15
2016-08-29T05:50:09.841Z,26.2
2016-08-29T05:50:35.428Z,26.18
2016-08-29T05:51:00.976Z,26.09
2016-08-29T05:51:26.543Z,26.2
2016-08-29T05:51:52.087Z,26.17
2016-08-29T05:52:17.755Z,26.18
2016-08-29T05:52:43.370Z,26.18
2016-08-29T05:53:08.890Z,26.18
2016-08-29T05:53:34.625Z,26.18
2016-08-29T05:54:27.728Z,26.15
2016-08-29T05:54:53.290Z,26.18
2016-08-29T05:55:19.054Z,26.2
2016-08-29T05:55:44.716Z,26.21
2016-08-29T05:56:10.266Z,26.17
2016-08-29T05:56:35.922Z,26.12
2016-08-29T05:57:01.480Z,26.22
2016-08-29T05:57:27.136Z,26.08
2016-08-29T05:57:52.784Z,26.09
2016-08-29T05:58:18.362Z,26.18
2016-08-29T05:58:43.984Z,26.15
2016-08-29T05:59:09.660Z,26.09
2016-08-29T05:59:35.294Z,26.18
2016-08-29T06:00:00.907Z,26.12
2016-08-29T06:00:26.465Z,26.12
2016-08-29T06:01:23.779Z,26.18
2016-08-29T06:01:49.323Z,26.12
2016-08-29T06:02:14.967Z,26.11
2016-08-29T06:02:40.527Z,26.11
2016-08-29T06:03:06.093Z,26.11
2016-08-29T06:03:32.027Z,26.17
2016-08-29T06:03:57.580Z,26.08
2016-08-29T06:04:23.846Z,26.08
2016-08-29T06:04:49.420Z,26.11
2016-08-29T06:05:15.000Z,26.12
2016-08-29T06:05:41.457Z,26.12
2016-08-29T06:06:07.023Z,26.18
2016-08-29T06:06:32.981Z,26.12
2016-08-29T06:06:58.571Z,26.09
2016-08-29T06:07:24.799Z,26.09
2016-08-29T06:07:50.436Z,26.09
2016-08-29T06:08:16.011Z,26.11
2016-08-29T06:08:42.111Z,26.08
2016-08-29T06:09:07.692Z,26.15
2016-08-29T06:09:34.203Z,26.04
2016-08-29T06:09:59.562Z,26.11
2016-08-29T06:10:25.138Z,26.12
2016-08-29T06:10:51.295Z,26.11
2016-08-29T06:11:16.941Z,26.11
2016-08-29T06:11:43.064Z,26.15
2016-08-29T06:12:08.618Z,26.04
2016-08-29T06:12:34.878Z,26.11
2016-08-29T06:13:00.436Z,26.12
2016-08-29T06:13:26.020Z,26.09
2016-08-29T06:13:52.198Z,26.05
2016-08-29T06:14:17.768Z,26.06
2016-08-29T06:14:44.054Z,26.02
2016-08-29T06:15:09.614Z,26.02
2016-08-29T06:15:35.207Z,26.09
2016-08-29T06:16:01.370Z,26.05
2016-08-29T06:16:26.924Z,26.04
2016-08-29T06:16:53.166Z,26.04
2016-08-29T06:17:18.739Z,26.06
2016-08-29T06:17:44.953Z,26.06
2016-08-29T06:18:10.540Z,26.08
2016-08-29T06:18:36.132Z,26.06
2016-08-29T06:19:02.300Z,26.05
2016-08-29T06:19:27.948Z,26.02
2016-08-29T08:29:24.803Z,25.97
2016-08-29T08:29:50.431Z,26.02
2016-08-29T08:30:16.045Z,25.99
2016-08-29T08:30:41.637Z,26.01
2016-08-29T08:31:07.258Z,25.99
2016-08-29T08:31:32.859Z,25.94
2016-08-29T08:31:58.441Z,26.01
2016-08-29T08:32:24.001Z,26.01
2016-08-29T08:32:49.543Z,26.05
2016-08-29T08:33:15.124Z,25.99
2016-08-29T08:33:40.706Z,25.97
2016-08-29T08:34:06.394Z,25.98
2016-08-29T08:34:31.970Z,26.04
2016-08-29T08:34:57.527Z,25.97
2016-08-29T08:35:23.771Z,26.01
2016-08-29T08:35:49.351Z,25.9
2016-08-29T08:36:14.907Z,25.99
2016-08-29T08:36:40.543Z,26.01
2016-08-29T08:37:06.107Z,25.97
2016-08-29T08:37:31.660Z,25.97
2016-08-29T08:37:57.254Z,25.94
2016-08-29T08:38:22.820Z,25.93
2016-08-29T08:38:48.467Z,26.04
2016-08-29T08:39:14.026Z,25.98
2016-08-29T08:39:39.582Z,26.01
2016-08-29T08:40:05.131Z,25.98
2016-08-29T08:40:30.812Z,26.02
2016-08-29T08:40:56.372Z,26.06
2016-08-29T08:41:21.922Z,25.99
2016-08-29T08:41:47.500Z,26.04
2016-08-29T08:42:13.035Z,26.02
2016-08-29T08:42:38.560Z,26.04
2016-08-29T08:43:04.218Z,26.04
2016-08-29T08:43:29.763Z,26.05
2016-08-29T08:43:55.317Z,26.05
2016-08-29T08:44:20.915Z,25.98
2016-08-29T08:44:46.494Z,25.94
2016-08-29T08:45:12.046Z,25.99
2016-08-29T08:45:37.633Z,26.06
2016-08-29T08:46:03.175Z,25.98
2016-08-29T08:46:28.759Z,25.97
2016-08-29T08:46:54.292Z,26.02
2016-08-29T08:47:19.833Z,25.97
2016-08-29T08:47:45.371Z,25.99
2016-08-29T08:48:10.913Z,26.01
2016-08-29T08:48:36.482Z,25.99
2016-08-29T08:49:02.029Z,26.05
2016-08-29T08:49:27.559Z,26.04
2016-08-29T08:49:53.128Z,25.94
2016-08-29T08:50:18.661Z,26.01
2016-08-29T08:50:44.343Z,25.97
2016-08-29T08:51:09.881Z,26.01
2016-08-29T08:51:35.529Z,25.99
2016-08-29T08:52:01.074Z,26.01
2016-08-29T08:52:26.748Z,26.04
2016-08-29T08:52:52.325Z,26.05
2016-08-29T08:53:17.844Z,26.01
2016-08-29T08:53:43.505Z,26.04
2016-08-29T08:54:09.109Z,26.02
2016-08-29T08:54:34.661Z,26.08
2016-08-29T08:55:00.183Z,26.01
2016-08-29T08:55:26.366Z,25.98
2016-08-29T08:55:51.904Z,25.99
2016-08-29T08:56:17.451Z,26.01
2016-08-29T08:56:42.977Z,26.01
2016-08-29T08:57:08.540Z,25.94
2016-08-29T08:57:34.132Z,25.97
2016-08-29T08:57:59.655Z,26.04
2016-08-29T08:58:25.218Z,25.98
2016-08-29T08:58:50.851Z,25.93
2016-08-29T08:59:16.399Z,25.97
2016-08-29T08:59:41.951Z,26.01
2016-08-29T09:00:07.510Z,26.08
2016-08-29T09:00:33.059Z,25.97
2016-08-29T09:00:59.079Z,26.01
2016-08-29T09:01:24.651Z,25.99
2016-08-29T09:01:50.219Z,25.91
2016-08-29T09:02:15.798Z,25.98
2016-08-29T09:02:41.383Z,25.98
2016-08-29T09:03:06.954Z,26.01
2016-08-29T09:03:32.512Z,25.99
2016-08-29T09:03:58.073Z,26.01
2016-08-29T09:04:23.629Z,25.99
2016-08-29T09:04:49.172Z,26.02
2016-08-29T09:05:14.994Z,26.04
2016-08-29T09:05:40.555Z,26.02
2016-08-29T09:06:06.201Z,25.99
2016-08-29T09:06:31.769Z,25.99
2016-08-29T09:06:57.344Z,25.99
2016-08-29T09:07:22.899Z,25.98
2016-08-29T09:07:48.461Z,26.04
2016-08-29T09:08:14.021Z,25.98
2016-08-29T09:08:39.575Z,26.04
2016-08-29T09:09:05.204Z,25.99
2016-08-29T09:09:30.802Z,25.97
2016-08-29T09:09:56.372Z,25.93
2016-08-29T09:10:21.971Z,25.97
2016-08-29T09:10:47.558Z,26.02
2016-08-29T09:11:13.162Z,25.91
2016-08-29T09:11:38.719Z,26.01
2016-08-29T09:12:04.273Z,25.9
2016-08-29T09:12:29.824Z,26.05
2016-08-29T09:12:55.364Z,26.04
2016-08-29T09:13:20.922Z,25.98
2016-08-29T09:13:46.484Z,25.97
2016-08-29T09:14:12.058Z,25.99
2016-08-29T09:14:37.644Z,25.97
2016-08-29T09:15:03.952Z,25.97
2016-08-29T09:15:29.510Z,25.93
2016-08-29T09:15:55.075Z,25.97
2016-08-29T09:16:20.619Z,26.04
2016-08-29T09:16:46.203Z,26.02
2016-08-29T09:17:11.778Z,26.05
2016-08-29T09:17:37.421Z,25.93
2016-08-29T09:18:03.011Z,25.99
2016-08-29T09:18:29.520Z,26.01
2016-08-29T09:18:55.082Z,25.97
2016-08-29T09:19:20.632Z,26.02
2016-08-29T09:19:46.218Z,25.98
2016-08-29T09:20:12.117Z,25.99
2016-08-29T09:20:37.686Z,26.04
2016-08-29T09:21:03.251Z,25.91
2016-08-29T09:21:56.237Z,25.99
2016-08-29T09:22:21.824Z,25.93
2016-08-29T09:22:47.344Z,25.94
2016-08-29T09:23:13.017Z,26.01
2016-08-29T09:23:38.587Z,26.01
2016-08-29T09:24:04.133Z,25.97
2016-08-29T09:24:29.752Z,26.04
2016-08-29T09:24:55.370Z,25.99
2016-08-29T09:25:21.086Z,25.99
2016-08-29T09:25:46.664Z,25.98
2016-08-29T09:26:12.238Z,26.01
2016-08-29T09:26:37.808Z,25.98
2016-08-29T09:27:03.464Z,25.97
2016-08-29T09:27:29.010Z,25.93
2016-08-29T09:27:54.589Z,26.04
2016-08-29T09:28:20.147Z,25.93
2016-08-29T09:28:45.695Z,25.97
2016-08-29T09:29:11.260Z,25.97
2016-08-29T09:29:36.821Z,25.99
2016-08-29T09:30:02.408Z,26.05
2016-08-29T09:30:28.159Z,26.02
2016-08-29T09:30:53.728Z,25.99
2016-08-29T09:31:19.278Z,26.01
2016-08-29T09:31:44.842Z,25.99
2016-08-29T09:32:10.407Z,26.04
2016-08-29T09:32:35.965Z,26.04
2016-08-29T09:33:01.547Z,26.04
2016-08-29T09:33:27.192Z,26.01
2016-08-29T09:33:52.761Z,26.04
2016-08-29T09:34:18.335Z,25.98
2016-08-29T09:34:43.877Z,26.05
2016-08-29T09:35:09.565Z,25.97
2016-08-29T09:35:35.137Z,26.01
2016-08-29T09:36:00.703Z,25.98
2016-08-29T09:36:26.266Z,25.94
2016-08-29T09:36:51.852Z,26.02
2016-08-29T09:37:17.458Z,26.05
2016-08-29T09:37:43.017Z,26.05
2016-08-29T09:38:08.571Z,25.99
2016-08-29T09:38:34.170Z,26.04
2016-08-29T09:38:59.721Z,25.94
2016-08-29T09:39:25.275Z,26.05
2016-08-29T09:39:50.845Z,26.02
2016-08-29T09:40:16.381Z,26.01
2016-08-29T09:40:41.962Z,25.97
2016-08-29T09:41:07.572Z,26.02
2016-08-29T09:41:33.157Z,25.97
2016-08-29T09:41:58.734Z,26.01
2016-08-29T09:42:24.302Z,26.01
2016-08-29T09:42:49.905Z,26.04
2016-08-29T09:43:15.480Z,25.9
2016-08-29T09:43:41.055Z,25.99
2016-08-29T09:44:06.602Z,25.97
2016-08-29T09:44:32.227Z,26.01
2016-08-29T09:44:57.796Z,25.99
2016-08-29T09:45:23.407Z,26.05
2016-08-29T09:45:48.972Z,26.02
2016-08-29T09:46:14.557Z,25.99
2016-08-29T09:46:40.130Z,26.01
2016-08-29T09:47:05.941Z,26.04
2016-08-29T09:47:31.503Z,26.01
2016-08-29T09:47:57.058Z,25.99
2016-08-29T09:48:22.622Z,26.05
2016-08-29T09:48:48.184Z,26.05
2016-08-29T09:49:13.781Z,26.02
2016-08-29T09:49:39.343Z,26.04
2016-08-29T09:50:05.289Z,25.97
2016-08-29T09:50:30.852Z,25.97
2016-08-29T09:50:56.421Z,26.04
2016-08-29T09:51:21.966Z,26.02
2016-08-29T09:51:47.567Z,25.98
2016-08-29T09:52:13.123Z,26.01
2016-08-29T09:52:38.656Z,26.06
2016-08-29T09:53:04.226Z,26.04
2016-08-29T09:53:29.792Z,26.06
2016-08-29T09:53:55.353Z,26.02
2016-08-29T09:54:20.913Z,25.98
2016-08-29T09:54:46.443Z,26.02
2016-08-29T09:55:12.011Z,26.02
2016-08-29T09:55:37.573Z,26.04
2016-08-29T09:56:03.125Z,26.04
2016-08-29T09:56:28.664Z,26.05
2016-08-29T09:56:54.200Z,25.98
2016-08-29T09:57:19.886Z,25.98
2016-08-29T09:57:45.449Z,26.04
2016-08-29T09:58:10.990Z,26.02
2016-08-29T09:58:36.586Z,26.05
2016-08-29T09:59:02.192Z,25.97
2016-08-29T09:59:27.722Z,26.02
2016-08-29T09:59:53.282Z,26.02
2016-08-29T10:00:18.837Z,25.98
2016-08-29T10:00:44.365Z,26.05
2016-08-29T10:01:09.906Z,25.97
2016-08-29T10:01:35.445Z,26.02
2016-08-29T10:02:01.002Z,25.97
2016-08-29T10:02:26.519Z,25.99
2016-08-29T10:02:52.061Z,25.99
2016-08-29T10:03:17.619Z,25.94
2016-08-29T10:03:43.193Z,26.02
2016-08-29T10:04:08.735Z,25.99
2016-08-29T10:04:34.303Z,25.99
2016-08-29T10:04:59.872Z,26.01
2016-08-29T10:05:25.428Z,26.05
2016-08-29T10:05:50.984Z,26.01
2016-08-29T10:06:16.542Z,26.02
2016-08-29T10:06:42.104Z,26.06
2016-08-29T10:07:07.660Z,26.04
2016-08-29T10:07:33.230Z,25.93
2016-08-29T10:07:58.777Z,25.99
2016-08-29T10:08:24.326Z,25.97
2016-08-29T10:08:49.881Z,25.99
2016-08-29T10:09:16.367Z,25.94
2016-08-29T10:09:41.939Z,26.04
2016-08-29T10:10:07.532Z,25.99
2016-08-29T10:10:33.073Z,25.9
2016-08-29T10:10:58.644Z,25.93
2016-08-29T10:11:24.188Z,25.94
2016-08-29T10:11:49.894Z,26.05
2016-08-29T10:12:15.470Z,26.05
2016-08-29T10:12:41.039Z,26.02
2016-08-29T10:13:06.601Z,26.06
2016-08-29T10:13:32.160Z,25.99
2016-08-29T10:13:57.720Z,25.99
2016-08-29T10:14:23.273Z,25.98
2016-08-29T10:14:48.826Z,26.02
2016-08-29T10:15:17.508Z,26.01
2016-08-29T10:15:43.184Z,26.04
2016-08-29T10:16:46.414Z,25.99
2016-08-29T10:17:11.975Z,26.06
2016-08-29T10:18:20.592Z,26.02
2016-08-29T10:18:46.165Z,25.94
2016-08-29T10:19:11.744Z,26.02
2016-08-29T10:21:18.809Z,26.02
2016-08-29T10:21:44.380Z,26.04
2016-08-29T10:22:09.943Z,26.02
2016-08-29T10:22:35.556Z,26.04
2016-08-29T10:23:01.145Z,25.99
2016-08-29T10:23:26.730Z,26.04
2016-08-29T10:23:52.305Z,26.05
2016-08-29T10:24:17.856Z,25.99
2016-08-29T10:24:43.445Z,25.99
2016-08-29T10:25:09.026Z,26.02
2016-08-29T10:25:34.592Z,26.05
2016-08-29T10:26:00.304Z,26.05
2016-08-29T10:26:25.875Z,26.05
2016-08-29T10:26:51.489Z,26.02
2016-08-29T10:27:17.041Z,26.01
2016-08-29T10:27:42.599Z,26.02
2016-08-29T10:28:08.159Z,25.99
2016-08-29T10:28:33.716Z,25.99
2016-08-29T10:28:59.264Z,26.06
2016-08-29T10:29:24.865Z,26.02
2016-08-29T10:29:50.429Z,26.04
2016-08-29T10:30:15.970Z,25.99
2016-08-29T10:30:41.532Z,25.99
2016-08-29T10:31:07.114Z,25.99
2016-08-29T10:31:32.676Z,26.05
2016-08-29T10:31:58.254Z,26.02
2016-08-29T10:32:23.828Z,26.01
2016-08-29T10:32:49.407Z,26.04
2016-08-29T10:33:14.962Z,26.01
2016-08-29T10:33:40.511Z,26.04
2016-08-29T10:34:06.075Z,25.98
2016-08-29T10:34:31.638Z,25.99
2016-08-29T10:34:57.223Z,25.97
2016-08-29T10:35:22.785Z,26.02
2016-08-29T10:35:48.474Z,26.02
2016-08-29T10:36:14.019Z,26.04
2016-08-29T10:36:39.577Z,26.01
2016-08-29T10:37:05.204Z,25.97
2016-08-29T10:37:30.758Z,26.01
2016-08-29T10:37:56.323Z,26.05
2016-08-29T10:38:21.893Z,26.01
2016-08-29T10:38:47.485Z,26.04
2016-08-29T10:39:13.045Z,25.97
2016-08-29T10:39:38.617Z,26.02
2016-08-29T10:40:04.173Z,25.97
2016-08-29T10:40:29.822Z,26.05
2016-08-29T10:40:55.394Z,25.99
2016-08-29T10:41:20.960Z,25.98
2016-08-29T10:41:46.560Z,25.99
2016-08-29T10:42:12.119Z,26.01
2016-08-29T10:42:37.684Z,25.98
2016-08-29T10:43:03.241Z,26.01
2016-08-29T10:43:28.825Z,26.04
2016-08-29T10:43:54.403Z,26.04
2016-08-29T10:44:20.008Z,26.02
2016-08-29T10:44:45.579Z,26.04
2016-08-29T10:45:11.205Z,26.06
2016-08-29T10:45:36.797Z,25.99
2016-08-29T10:46:02.373Z,26.04
2016-08-29T10:46:27.917Z,26.02
2016-08-29T10:46:53.479Z,26.01
2016-08-29T10:47:18.995Z,26.04
2016-08-29T10:47:44.563Z,26.02
2016-08-29T10:48:10.131Z,25.99
2016-08-29T10:48:35.694Z,26.02
2016-08-29T10:49:01.313Z,26.05
2016-08-29T10:49:26.871Z,25.99
2016-08-29T10:49:52.432Z,26.04